Time;durP1;ratioP1;P1;durP2;ratioP2;P2;SDS_P1;SDS_P2;PMS_P1;PMS_P2;Temp;Humidity;BMP_temperature;BMP_pressure;BME280_temperature;BME280_humidity;BME280_pressure;Samples;Min_cycle;Max_cycle;Signal;HPM_P1;HPM_P2
2021/04/04 00:00:19;;;;;;;;;;;;;;;1.07;83.07;100902.20;115255;1204;21601;-58
2021/04/04 00:03:08;;;;;;;;;;;;;;;1.10;83.00;100896.67;115104;1204;21604;-58
2021/04/04 00:05:36;;;;;;;;;;;;;;;1.12;83.00;100899.81;115280;1205;21600;-57
2021/04/04 00:08:04;;;;;;;;;;;;;;;1.13;83.08;100909.64;115079;1205;21743;-60
2021/04/04 00:10:32;;;;;;;;;;;;;;;1.15;83.13;100903.73;115582;1204;21673;-59
2021/04/04 00:13:01;;;;;;;;;;;;;;;1.13;83.37;100906.89;115265;1205;25932;-61
2021/04/04 00:15:29;;;;;;;;;;;;;;;1.12;83.23;100910.81;115541;1204;21743;-57
2021/04/04 00:17:57;;;;;;;;;;;;;;;1.13;84.02;100917.09;115100;1203;23238;-56
2021/04/04 00:20:25;;;;;;;;;;;;;;;1.11;83.53;100920.25;115129;1205;22384;-57
2021/04/04 00:22:53;;;;;;;;;;;;;;;1.11;83.67;100916.72;115235;1204;21601;-59
2021/04/04 00:25:21;;;;;;;;;;;;;;;1.12;83.58;100918.30;115130;1205;24684;-59
2021/04/04 00:27:49;;;;;;;;;;;;;;;1.11;83.65;100916.72;115373;1204;24319;-59
2021/04/04 00:30:19;;;;;;;;;;;;;;;1.10;83.61;100915.13;115224;1205;21607;-58
2021/04/04 00:32:48;;;;;;;;;;;;;;;1.11;83.69;100920.25;115271;1204;21589;-59
2021/04/04 00:35:16;;;;;;;;;;;;;;;1.11;83.70;100916.72;115274;1204;21745;-59
2021/04/04 00:37:45;;;;;;;;;;;;;;;1.11;83.64;100923.01;115200;1205;21659;-58
2021/04/04 00:40:13;;;;;;;;;;;;;;;1.13;83.84;100920.64;115134;1205;21688;-58
2021/04/04 00:42:41;;;;;;;;;;;;;;;1.13;83.91;100914.34;115328;1204;21676;-59
2021/04/04 00:45:11;;;;;;;;;;;;;;;1.13;83.48;100912.39;115186;1204;21747;-59
2021/04/04 00:47:39;;;;;;;;;;;;;;;1.16;83.63;100910.81;115381;1204;21608;-56
2021/04/04 00:50:08;;;;;;;;;;;;;;;1.16;83.49;100911.58;115260;1204;24366;-59
2021/04/04 00:52:37;;;;;;;;;;;;;;;1.19;83.19;100902.55;115452;1204;21607;-59
2021/04/04 00:55:06;;;;;;;;;;;;;;;1.22;83.31;100903.72;115185;1205;21843;-59
2021/04/04 00:57:35;;;;;;;;;;;;;;;1.24;83.14;100902.11;115298;1205;21676;-56
2021/04/04 01:00:04;;;;;;;;;;;;;;;1.27;83.15;100908.78;115323;1204;21612;-59
2021/04/04 01:02:32;;;;;;;;;;;;;;;1.29;83.33;100901.70;115363;1204;21743;-57
2021/04/04 01:05:01;;;;;;;;;;;;;;;1.30;83.02;100906.04;115172;1204;21743;-56
2021/04/04 01:07:29;;;;;;;;;;;;;;;1.31;83.05;100899.34;115252;1205;21600;-59
2021/04/04 01:09:57;;;;;;;;;;;;;;;1.32;83.38;100902.88;115168;1205;21601;-59
2021/04/04 01:12:29;;;;;;;;;;;;;;;1.31;83.04;100910.34;115128;1204;25670;-59
2021/04/04 01:15:00;;;;;;;;;;;;;;;1.29;83.20;100907.20;115178;1202;23343;-59
2021/04/04 01:17:29;;;;;;;;;;;;;;;1.29;83.42;100911.92;115185;1203;23201;-58
2021/04/04 01:20:09;;;;;;;;;;;;;;;1.28;83.26;100907.62;115200;1204;21777;-59
2021/04/04 01:22:46;;;;;;;;;;;;;;;1.27;83.43;100914.28;115314;1204;21609;-59
2021/04/04 01:25:18;;;;;;;;;;;;;;;1.27;83.24;100912.33;115213;1204;21604;-58
2021/04/04 01:27:50;;;;;;;;;;;;;;;1.28;83.19;100915.87;115165;1199;24642;-59
2021/04/04 01:30:18;;;;;;;;;;;;;;;1.30;83.14;100916.25;115196;1204;21641;-58
2021/04/04 01:32:47;;;;;;;;;;;;;;;1.30;83.22;100908.00;115256;1205;24319;-59
2021/04/04 01:35:17;;;;;;;;;;;;;;;1.32;83.36;100911.13;115283;1204;25905;-58
2021/04/04 01:37:45;;;;;;;;;;;;;;;1.35;83.15;100904.81;115242;1205;21700;-59
2021/04/04 01:40:14;;;;;;;;;;;;;;;1.35;83.22;100910.31;115184;1200;22147;-59
2021/04/04 01:42:43;;;;;;;;;;;;;;;1.35;83.23;100910.31;115354;1204;25908;-58
2021/04/04 01:45:11;;;;;;;;;;;;;;;1.32;83.06;100911.92;115315;1205;25872;-57
2021/04/04 01:47:41;;;;;;;;;;;;;;;1.30;83.28;100914.30;115296;1204;24316;-56
2021/04/04 01:50:11;;;;;;;;;;;;;;;1.28;83.54;100913.12;115176;1204;21656;-59
2021/04/04 01:52:39;;;;;;;;;;;;;;;1.27;83.20;100914.28;115205;1197;24466;-59
2021/04/04 01:55:08;;;;;;;;;;;;;;;1.26;83.13;100913.49;115170;1204;23802;-59
2021/04/04 01:57:36;;;;;;;;;;;;;;;1.25;83.22;100908.41;115314;1204;21672;-59
2021/04/04 02:00:08;;;;;;;;;;;;;;;1.24;83.34;100907.61;115185;1204;21605;-57
2021/04/04 02:02:36;;;;;;;;;;;;;;;1.23;83.19;100911.56;115309;1204;24404;-58
2021/04/04 02:05:06;;;;;;;;;;;;;;;1.23;83.33;100908.02;115227;1204;24347;-58
2021/04/04 02:07:35;;;;;;;;;;;;;;;1.21;83.36;100907.64;115398;1205;21611;-58
2021/04/04 02:10:04;;;;;;;;;;;;;;;1.19;83.33;100904.50;115279;1203;23243;-57
2021/04/04 02:12:33;;;;;;;;;;;;;;;1.17;83.24;100904.12;115188;1204;21601;-58
2021/04/04 02:15:02;;;;;;;;;;;;;;;1.17;83.10;100915.12;115172;1204;21675;-56
2021/04/04 02:17:29;;;;;;;;;;;;;;;1.16;83.27;100913.56;115216;1205;24643;-59
2021/04/04 02:19:59;;;;;;;;;;;;;;;1.15;83.29;100910.03;115261;1205;21743;-58
2021/04/04 02:22:26;;;;;;;;;;;;;;;1.16;83.23;100910.81;115235;1204;25953;-57
2021/04/04 02:24:54;;;;;;;;;;;;;;;1.16;83.18;100916.31;115248;1204;26837;-59
2021/04/04 02:27:22;;;;;;;;;;;;;;;1.14;83.31;100908.44;115292;1205;24643;-58
2021/04/04 02:29:49;;;;;;;;;;;;;;;1.14;83.45;100908.44;115229;1202;23265;-57
2021/04/04 02:32:19;;;;;;;;;;;;;;;1.12;83.23;100910.05;115221;1196;24318;-57
2021/04/04 02:34:50;;;;;;;;;;;;;;;1.09;83.57;100906.13;115215;1202;25866;-57
2021/04/04 02:37:17;;;;;;;;;;;;;;;1.06;83.49;100901.41;115322;1205;21603;-58
2021/04/04 02:39:48;;;;;;;;;;;;;;;1.07;83.51;100899.45;115199;1203;25563;-57
2021/04/04 02:42:18;;;;;;;;;;;;;;;1.06;83.43;100903.37;115221;1205;21668;-58
2021/04/04 02:44:48;;;;;;;;;;;;;;;1.07;83.44;100902.98;115408;1204;25211;-57
2021/04/04 02:47:18;;;;;;;;;;;;;;;1.06;83.42;100906.91;115468;1204;24720;-59
2021/04/04 02:49:48;;;;;;;;;;;;;;;1.07;83.40;100902.20;115274;1205;24316;-59
2021/04/04 02:52:18;;;;;;;;;;;;;;;1.08;83.50;100903.75;115231;1204;21600;-56
2021/04/04 02:54:48;;;;;;;;;;;;;;;1.09;83.42;100900.63;115410;1202;23243;-57
2021/04/04 02:57:16;;;;;;;;;;;;;;;1.11;83.55;100903.76;115209;1205;21672;-58
2021/04/04 02:59:46;;;;;;;;;;;;;;;1.11;83.23;100902.97;115401;1205;21743;-58
2021/04/04 03:02:17;;;;;;;;;;;;;;;1.13;83.17;100903.35;115172;1203;23025;-59
2021/04/04 03:04:46;;;;;;;;;;;;;;;1.13;83.31;100912.39;115232;1205;25562;-59
2021/04/04 03:07:16;;;;;;;;;;;;;;;1.12;83.13;100916.31;115181;1204;21617;-58
2021/04/04 03:09:45;;;;;;;;;;;;;;;1.14;83.16;100907.69;115024;1204;21608;-56
2021/04/04 03:12:14;;;;;;;;;;;;;;;1.14;83.22;100902.94;114992;1204;21603;-58
2021/04/04 03:14:44;;;;;;;;;;;;;;;1.13;83.12;100909.64;115149;1204;21668;-57
2021/04/04 03:17:15;;;;;;;;;;;;;;;1.13;82.94;100903.35;115241;1202;23019;-57
2021/04/04 03:19:44;;;;;;;;;;;;;;;1.12;82.89;100904.55;115311;1204;21766;-58
2021/04/04 03:22:12;;;;;;;;;;;;;;;1.09;83.07;100906.13;115342;1204;21671;-59
2021/04/04 03:24:41;;;;;;;;;;;;;;;1.07;82.90;100907.70;115263;1203;23250;-56
2021/04/04 03:27:09;;;;;;;;;;;;;;;1.05;83.02;100902.61;115321;1204;21720;-58
2021/04/04 03:29:39;;;;;;;;;;;;;;;1.04;83.03;100894.73;115226;1204;21912;-58
2021/04/04 03:32:07;;;;;;;;;;;;;;;1.02;82.83;100906.14;115301;1204;21611;-58
2021/04/04 03:34:36;;;;;;;;;;;;;;;1.01;82.84;100903.80;115229;1204;21599;-58
2021/04/04 03:37:04;;;;;;;;;;;;;;;0.99;82.98;100906.95;115238;1202;23208;-58
2021/04/04 03:39:32;;;;;;;;;;;;;;;0.97;82.85;100897.52;115238;1204;25324;-59
2021/04/04 03:42:01;;;;;;;;;;;;;;;0.97;82.60;100892.82;115296;1204;21600;-56
2021/04/04 03:44:32;;;;;;;;;;;;;;;1.00;82.55;100893.97;115314;1204;21811;-57
2021/04/04 03:47:01;;;;;;;;;;;;;;;1.00;82.53;100891.22;115275;1204;21759;-58
2021/04/04 03:49:29;;;;;;;;;;;;;;;0.97;82.75;100898.31;115254;1205;24646;-56
2021/04/04 03:51:58;;;;;;;;;;;;;;;0.95;82.20;100897.14;115399;1202;23243;-59
2021/04/04 03:54:27;;;;;;;;;;;;;;;0.93;82.28;100908.55;115228;1205;21601;-56
2021/04/04 03:56:56;;;;;;;;;;;;;;;0.92;82.21;100908.92;115254;1204;22156;-56
2021/04/04 03:59:24;;;;;;;;;;;;;;;0.89;82.42;100910.48;115252;1204;21600;-59
2021/04/04 04:01:52;;;;;;;;;;;;;;;0.84;82.32;100905.42;115265;1204;21701;-57
2021/04/04 04:04:21;;;;;;;;;;;;;;;0.82;82.18;100916.02;115367;1205;26064;-57
2021/04/04 04:06:50;;;;;;;;;;;;;;;0.76;82.42;100907.41;115245;1205;21600;-58
2021/04/04 04:09:18;;;;;;;;;;;;;;;0.74;82.25;100911.73;115289;1205;24613;-58
2021/04/04 04:11:47;;;;;;;;;;;;;;;0.71;82.41;100901.52;115266;1202;22993;-59
2021/04/04 04:14:15;;;;;;;;;;;;;;;0.67;82.45;100898.78;115266;1205;21672;-57
2021/04/04 04:16:43;;;;;;;;;;;;;;;0.63;82.45;100898.01;115205;1205;21607;-58
2021/04/04 04:19:12;;;;;;;;;;;;;;;0.61;82.27;100907.82;115192;1202;23367;-58
2021/04/04 04:21:40;;;;;;;;;;;;;;;0.57;82.30;100905.09;115159;1204;21672;-59
2021/04/04 04:24:10;;;;;;;;;;;;;;;0.55;82.15;100893.71;115189;1204;21601;-58
2021/04/04 04:26:41;;;;;;;;;;;;;;;0.53;82.15;100898.03;115321;1204;21601;-57
2021/04/04 04:29:09;;;;;;;;;;;;;;;0.51;82.15;100905.88;115145;1205;21601;-58
2021/04/04 04:31:39;;;;;;;;;;;;;;;0.47;82.12;100903.15;115188;1205;21653;-58
2021/04/04 04:34:08;;;;;;;;;;;;;;;0.42;82.38;100902.74;115213;1204;21743;-56
2021/04/04 04:36:36;;;;;;;;;;;;;;;0.37;82.72;100905.91;115293;1204;21618;-58
2021/04/04 04:39:04;;;;;;;;;;;;;;;0.32;82.72;100909.83;115268;1204;25568;-57
2021/04/04 04:41:34;;;;;;;;;;;;;;;0.32;82.76;100906.28;115229;1205;22327;-58
2021/04/04 04:44:03;;;;;;;;;;;;;;;0.26;82.94;100908.66;115428;1204;21603;-57
2021/04/04 04:46:32;;;;;;;;;;;;;;;0.20;83.41;100912.97;115372;1204;21600;-59
2021/04/04 04:49:01;;;;;;;;;;;;;;;0.15;83.82;100904.33;115292;1204;21608;-56
2021/04/04 04:51:29;;;;;;;;;;;;;;;0.10;84.28;100913.77;115206;1205;21604;-54
2021/04/04 04:53:57;;;;;;;;;;;;;;;0.05;84.45;100925.13;115111;1202;26718;-54
2021/04/04 04:56:25;;;;;;;;;;;;;;;0.03;84.50;100912.95;115291;1205;21632;-54
2021/04/04 04:58:54;;;;;;;;;;;;;;;0.02;84.50;100917.69;115272;1204;21669;-54
2021/04/04 05:01:24;;;;;;;;;;;;;;;0.02;84.63;100928.66;115209;1203;25838;-54
2021/04/04 05:03:52;;;;;;;;;;;;;;;0.02;84.89;100919.64;115200;1204;21608;-57
2021/04/04 05:06:24;;;;;;;;;;;;;;;0.02;84.99;100925.13;115287;1204;25580;-54
2021/04/04 05:08:53;;;;;;;;;;;;;;;0.02;85.09;100928.66;115201;1205;21603;-56
2021/04/04 05:11:22;;;;;;;;;;;;;;;0.03;84.94;100930.22;115279;1204;24315;-55
2021/04/04 05:13:50;;;;;;;;;;;;;;;0.03;85.23;100935.70;115248;1202;23245;-57
2021/04/04 05:16:18;;;;;;;;;;;;;;;0.04;85.27;100926.31;115178;1205;21904;-58
2021/04/04 05:18:49;;;;;;;;;;;;;;;0.08;85.20;100929.84;115212;1204;21740;-57
2021/04/04 05:21:23;;;;;;;;;;;;;;;0.10;85.23;100927.48;115377;1204;21669;-55
2021/04/04 05:23:56;;;;;;;;;;;;;;;0.11;85.47;100931.00;115627;1204;21599;-54
2021/04/04 05:26:25;;;;;;;;;;;;;;;0.14;85.17;100927.48;115513;1204;21707;-57
2021/04/04 05:28:54;;;;;;;;;;;;;;;0.20;85.42;100931.41;115616;1204;24684;-57
2021/04/04 05:31:22;;;;;;;;;;;;;;;0.23;85.44;100936.88;115614;1204;24319;-57
2021/04/04 05:33:49;;;;;;;;;;;;;;;0.28;85.46;100932.97;115479;1204;24668;-55
2021/04/04 05:36:18;;;;;;;;;;;;;;;0.32;85.58;100945.53;115574;1204;22992;-55
2021/04/04 05:38:46;;;;;;;;;;;;;;;0.36;85.56;100943.56;115563;1204;25815;-57
2021/04/04 05:41:14;;;;;;;;;;;;;;;0.41;85.66;100945.14;115536;1202;24347;-56
2021/04/04 05:43:46;;;;;;;;;;;;;;;0.45;85.63;100940.42;115545;1202;23003;-57
2021/04/04 05:46:18;;;;;;;;;;;;;;;0.49;85.42;100957.69;115479;1204;21585;-56
2021/04/04 05:48:57;;;;;;;;;;;;;;;0.54;85.52;100946.28;115604;1204;21675;-58
2021/04/04 05:51:36;;;;;;;;;;;;;;;0.58;85.84;100945.11;115493;1204;21744;-55
2021/04/04 05:54:21;;;;;;;;;;;;;;;0.65;85.85;100956.10;115441;1204;21673;-57
2021/04/04 05:56:51;;;;;;;;;;;;;;;0.68;85.84;100955.30;115272;1207;21618;-56
2021/04/04 05:59:27;;;;;;;;;;;;;;;0.71;85.63;100965.52;115269;1207;21705;-57
2021/04/04 06:02:07;;;;;;;;;;;;;;;0.74;85.51;100959.23;115215;1207;21752;-56
2021/04/04 06:04:55;;;;;;;;;;;;;;;0.77;85.68;100957.64;115368;1207;21692;-60
2021/04/04 06:07:36;;;;;;;;;;;;;;;0.81;85.85;100967.45;115155;1207;21614;-59
2021/04/04 06:10:06;;;;;;;;;;;;;;;0.84;85.81;100965.89;114795;1208;24315;-58
2021/04/04 06:12:44;;;;;;;;;;;;;;;0.81;85.70;100961.95;114871;1209;21695;-57
2021/04/04 06:15:19;;;;;;;;;;;;;;;0.83;85.82;100963.54;114823;1209;21612;-58
2021/04/04 06:17:55;;;;;;;;;;;;;;;0.86;85.79;100958.03;114766;1209;21614;-58
2021/04/04 06:20:33;;;;;;;;;;;;;;;0.93;86.22;100957.23;114834;1209;23193;-58
2021/04/04 06:23:06;;;;;;;;;;;;;;;0.97;85.92;100955.26;114788;1209;21618;-57
2021/04/04 06:25:42;;;;;;;;;;;;;;;1.02;86.04;100949.34;114863;1209;21775;-55
2021/04/04 06:28:13;;;;;;;;;;;;;;;1.05;85.92;100946.59;114831;1209;24937;-58
2021/04/04 06:30:46;;;;;;;;;;;;;;;1.10;86.09;100946.17;114914;1209;21643;-58
2021/04/04 06:33:21;;;;;;;;;;;;;;;1.18;85.84;100949.70;114714;1209;21613;-57
2021/04/04 06:35:53;;;;;;;;;;;;;;;1.24;86.03;100934.35;115241;1207;21619;-56
2021/04/04 06:38:35;;;;;;;;;;;;;;;1.33;86.04;100937.44;115106;1207;21688;-57
2021/04/04 06:41:09;;;;;;;;;;;;;;;1.38;86.00;100942.54;115132;1207;21721;-58
2021/04/04 06:43:40;;;;;;;;;;;;;;;1.43;85.86;100942.11;115209;1207;21750;-57
2021/04/04 06:46:14;;;;;;;;;;;;;;;1.52;85.87;100940.51;115155;1207;22066;-62
2021/04/04 06:48:48;;;;;;;;;;;;;;;1.55;85.73;100942.45;115405;1203;23151;-57
2021/04/04 06:51:22;;;;;;;;;;;;;;;1.60;85.65;100935.73;115451;1204;21600;-55
2021/04/04 06:54:13;;;;;;;;;;;;;;;1.64;85.56;100939.25;115520;1204;25963;-57
2021/04/04 06:56:46;;;;;;;;;;;;;;;1.69;85.76;100941.60;115173;1207;25312;-57
2021/04/04 06:59:17;;;;;;;;;;;;;;;1.75;85.76;100944.70;115141;1207;21669;-58
2021/04/04 07:02:00;;;;;;;;;;;;;;;1.80;85.39;100938.79;115313;1207;21602;-57
2021/04/04 07:04:32;;;;;;;;;;;;;;;1.84;85.44;100943.09;115104;1207;21782;-55
2021/04/04 07:07:27;;;;;;;;;;;;;;;1.92;85.52;100941.86;115162;1207;21675;-55
2021/04/04 07:10:08;;;;;;;;;;;;;;;2.01;85.45;100944.92;115172;1203;24882;-56
2021/04/04 07:12:47;;;;;;;;;;;;;;;2.12;85.36;100942.89;115214;1207;21613;-56
2021/04/04 07:15:29;;;;;;;;;;;;;;;2.19;85.09;100940.06;115047;1208;21765;-57
2021/04/04 07:18:09;;;;;;;;;;;;;;;2.26;85.21;100944.73;115058;1207;21679;-56
2021/04/04 07:20:55;;;;;;;;;;;;;;;2.32;84.92;100949.41;115101;1207;21803;-54
2021/04/04 07:23:38;;;;;;;;;;;;;;;2.44;84.77;100946.16;115114;1207;21669;-56
2021/04/04 07:26:16;;;;;;;;;;;;;;;2.56;84.52;100939.38;115130;1207;21624;-56
2021/04/04 07:28:58;;;;;;;;;;;;;;;2.68;84.26;100946.34;115059;1207;21603;-57
2021/04/04 07:31:27;;;;;;;;;;;;;;;2.76;84.03;100940.36;114701;1206;23252;-56
2021/04/04 07:34:00;;;;;;;;;;;;;;;2.81;83.72;100939.93;114910;1207;21631;-57
2021/04/04 07:36:32;;;;;;;;;;;;;;;2.86;83.85;100939.47;114951;1207;25751;-55
2021/04/04 07:39:03;;;;;;;;;;;;;;;2.94;83.50;100948.44;115174;1207;21602;-57
2021/04/04 07:41:36;;;;;;;;;;;;;;;3.03;83.54;100943.23;115157;1206;23330;-62
2021/04/04 07:44:08;;;;;;;;;;;;;;;3.10;83.63;100949.44;115306;1207;22334;-57
2021/04/04 07:46:44;;;;;;;;;;;;;;;3.07;83.33;100949.48;115240;1207;22127;-56
2021/04/04 07:49:22;;;;;;;;;;;;;;;3.08;83.28;100937.27;115199;1207;21733;-55
2021/04/04 07:51:51;;;;;;;;;;;;;;;3.08;82.80;100938.03;115202;1207;24687;-56
2021/04/04 07:54:23;;;;;;;;;;;;;;;3.07;83.06;100952.25;115121;1207;24325;-54
2021/04/04 07:56:54;;;;;;;;;;;;;;;3.08;82.66;100945.55;115254;1207;21778;-58
2021/04/04 07:59:26;;;;;;;;;;;;;;;3.07;82.80;100953.03;115199;1207;21843;-57
2021/04/04 08:02:00;;;;;;;;;;;;;;;3.11;83.06;100950.23;115397;1207;21611;-59
2021/04/04 08:04:33;;;;;;;;;;;;;;;3.21;83.26;100949.32;115278;1207;25359;-57
2021/04/04 08:07:06;;;;;;;;;;;;;;;3.25;82.88;100944.54;115048;1208;21689;-62
2021/04/04 08:09:41;;;;;;;;;;;;;;;3.29;82.50;100946.06;115179;1204;25841;-58
2021/04/04 08:12:18;;;;;;;;;;;;;;;3.32;81.96;100946.44;115324;1204;22492;-60
2021/04/04 08:14:49;;;;;;;;;;;;;;;3.41;82.31;100947.52;115591;1204;21695;-60
2021/04/04 08:17:18;;;;;;;;;;;;;;;3.51;81.90;100948.57;115521;1204;24318;-59
2021/04/04 08:19:57;;;;;;;;;;;;;;;3.59;81.81;100942.55;115511;1203;23229;-62
2021/04/04 08:22:28;;;;;;;;;;;;;;;3.66;81.98;100936.91;115470;1204;21862;-60
2021/04/04 08:25:00;;;;;;;;;;;;;;;3.74;81.55;100948.66;115442;1204;21608;-61
2021/04/04 08:27:30;;;;;;;;;;;;;;;3.80;81.58;100939.50;115471;1203;24319;-60
2021/04/04 08:30:00;;;;;;;;;;;;;;;3.85;81.16;100946.52;115683;1204;21605;-60
2021/04/04 08:32:30;;;;;;;;;;;;;;;3.88;81.25;100942.93;115559;1204;21740;-61
2021/04/04 08:34:59;;;;;;;;;;;;;;;3.97;81.77;100940.45;115673;1204;21747;-61
2021/04/04 08:37:30;;;;;;;;;;;;;;;4.05;80.67;100936.38;115443;1204;21600;-59
2021/04/04 08:40:01;;;;;;;;;;;;;;;4.12;80.75;100939.01;115567;1204;25911;-63
2021/04/04 08:42:30;;;;;;;;;;;;;;;4.19;80.08;100938.13;115615;1203;21740;-60
2021/04/04 08:45:02;;;;;;;;;;;;;;;4.27;80.24;100932.06;115642;1204;21673;-61
2021/04/04 08:47:31;;;;;;;;;;;;;;;4.36;80.53;100931.53;115549;1204;24316;-62
2021/04/04 08:50:01;;;;;;;;;;;;;;;4.40;79.79;100927.52;115556;1203;24346;-63
2021/04/04 08:52:32;;;;;;;;;;;;;;;4.50;79.59;100934.05;115439;1204;21607;-62
2021/04/04 08:55:01;;;;;;;;;;;;;;;4.53;79.18;100933.23;115512;1204;25825;-61
2021/04/04 08:57:34;;;;;;;;;;;;;;;4.53;78.34;100928.45;115437;1204;21676;-62
2021/04/04 09:00:04;;;;;;;;;;;;;;;4.53;78.56;100925.69;115505;1204;21608;-61
2021/04/04 09:02:34;;;;;;;;;;;;;;;4.59;78.95;100928.78;115451;1204;21695;-61
2021/04/04 09:05:06;;;;;;;;;;;;;;;4.64;78.91;100920.77;115665;1204;21605;-59
2021/04/04 09:07:41;;;;;;;;;;;;;;;4.77;78.62;100912.63;115903;1204;21670;-62
2021/04/04 09:10:11;;;;;;;;;;;;;;;4.82;78.15;100917.70;115568;1204;21600;-59
2021/04/04 09:12:40;;;;;;;;;;;;;;;4.90;77.20;100919.88;115420;1202;23381;-58
2021/04/04 09:15:09;;;;;;;;;;;;;;;5.00;76.44;100917.34;115504;1204;21742;-57
2021/04/04 09:17:39;;;;;;;;;;;;;;;5.11;76.79;100907.61;115610;1204;21673;-59
2021/04/04 09:20:09;;;;;;;;;;;;;;;5.22;76.88;100908.19;115429;1204;21589;-57
2021/04/04 09:22:37;;;;;;;;;;;;;;;5.33;75.26;100908.77;115407;1204;21704;-58
2021/04/04 09:25:08;;;;;;;;;;;;;;;5.48;76.44;100900.94;115218;1203;21600;-56
2021/04/04 09:27:38;;;;;;;;;;;;;;;5.61;75.52;100902.61;115339;1204;21839;-59
2021/04/04 09:30:22;;;;;;;;;;;;;;;5.66;74.64;100902.11;115251;1204;21745;-58
2021/04/04 09:32:52;;;;;;;;;;;;;;;5.58;73.24;100900.71;115208;1204;21679;-58
2021/04/04 09:35:22;;;;;;;;;;;;;;;5.55;72.95;100907.09;115409;1200;23151;-59
2021/04/04 09:37:50;;;;;;;;;;;;;;;5.52;74.23;100896.89;115438;1204;21729;-59
2021/04/04 09:40:19;;;;;;;;;;;;;;;5.52;74.02;100896.89;115395;1204;25106;-59
2021/04/04 09:42:48;;;;;;;;;;;;;;;5.54;74.00;100891.70;115268;1204;21685;-57
2021/04/04 09:45:16;;;;;;;;;;;;;;;5.56;74.61;100888.49;115368;1204;25829;-56
2021/04/04 09:47:44;;;;;;;;;;;;;;;5.60;74.33;100886.42;115371;1204;21740;-58
2021/04/04 09:50:20;;;;;;;;;;;;;;;5.64;73.78;100892.66;115311;1174;30033;-59
2021/04/04 09:52:48;;;;;;;;;;;;;;;5.67;73.40;100886.25;115286;1204;21890;-56
2021/04/04 09:55:18;;;;;;;;;;;;;;;5.62;70.64;100893.10;115199;1204;24285;-55
2021/04/04 09:57:46;;;;;;;;;;;;;;;5.54;71.21;100882.61;115370;1204;21601;-57
2021/04/04 10:00:23;;;;;;;;;;;;;;;5.51;71.85;100880.67;115402;1202;23332;-56
2021/04/04 10:02:51;;;;;;;;;;;;;;;5.49;71.72;100880.33;115499;1204;24749;-60
2021/04/04 10:05:27;;;;;;;;;;;;;;;5.51;72.09;100873.16;115214;1205;21703;-58
2021/04/04 10:07:54;;;;;;;;;;;;;;;5.62;72.44;100876.48;115229;1204;21845;-58
2021/04/04 10:10:28;;;;;;;;;;;;;;;5.73;71.80;100865.16;115091;1204;21600;-56
2021/04/04 10:12:56;;;;;;;;;;;;;;;5.79;71.66;100871.75;115143;1205;24566;-55
2021/04/04 10:15:25;;;;;;;;;;;;;;;5.87;71.38;100867.63;115146;1205;21601;-56
2021/04/04 10:17:54;;;;;;;;;;;;;;;5.99;71.30;100866.94;115445;1204;21588;-58
2021/04/04 10:20:32;;;;;;;;;;;;;;;6.08;71.09;100864.34;115168;1204;21594;-57
2021/04/04 10:23:00;;;;;;;;;;;;;;;6.15;71.24;100866.14;115411;1204;21650;-57
2021/04/04 10:25:27;;;;;;;;;;;;;;;6.17;69.11;100872.81;115263;1205;21600;-57
2021/04/04 10:27:59;;;;;;;;;;;;;;;6.16;69.29;100862.17;115268;1203;21733;-57
2021/04/04 10:30:30;;;;;;;;;;;;;;;6.17;70.17;100855.39;115186;1204;21607;-58
2021/04/04 10:33:16;;;;;;;;;;;;;;;6.21;69.67;100856.09;115303;1204;21883;-59
2021/04/04 10:35:44;;;;;;;;;;;;;;;6.22;69.06;100847.36;115195;1205;21671;-59
2021/04/04 10:38:12;;;;;;;;;;;;;;;6.27;69.74;100848.83;115834;1204;21600;-59
2021/04/04 10:40:41;;;;;;;;;;;;;;;6.36;69.18;100846.20;115234;1204;21600;-58
2021/04/04 10:43:10;;;;;;;;;;;;;;;6.50;68.07;100851.37;115359;1203;21583;-57
2021/04/04 10:45:54;;;;;;;;;;;;;;;6.63;67.43;100846.67;115439;1203;21696;-58
2021/04/04 10:48:21;;;;;;;;;;;;;;;6.86;67.57;100835.33;115595;1204;25597;-59
2021/04/04 10:50:49;;;;;;;;;;;;;;;7.07;68.05;100826.39;115296;1173;31731;-60
2021/04/04 10:53:17;;;;;;;;;;;;;;;7.20;66.79;100823.64;115342;1203;24386;-60
2021/04/04 10:55:45;;;;;;;;;;;;;;;7.28;66.40;100833.31;115414;1204;21668;-61
2021/04/04 10:58:13;;;;;;;;;;;;;;;7.35;66.30;100819.98;115427;1204;24417;-57
2021/04/04 11:00:44;;;;;;;;;;;;;;;7.47;67.02;100817.67;115368;1204;21600;-58
2021/04/04 11:03:12;;;;;;;;;;;;;;;7.62;66.27;100816.77;115452;1204;21675;-58
2021/04/04 11:05:41;;;;;;;;;;;;;;;7.70;66.09;100803.41;115514;1204;21908;-58
2021/04/04 11:08:08;;;;;;;;;;;;;;;7.75;66.69;100802.87;115057;1204;21654;-59
2021/04/04 11:10:36;;;;;;;;;;;;;;;7.78;65.74;100804.77;115033;1205;21669;-59
2021/04/04 11:13:05;;;;;;;;;;;;;;;7.75;65.29;100805.64;115309;1204;24322;-59
2021/04/04 11:15:34;;;;;;;;;;;;;;;7.69;64.90;100808.22;115158;1204;25260;-58
2021/04/04 11:18:08;;;;;;;;;;;;;;;7.61;65.27;100803.33;115482;1204;24764;-57
2021/04/04 11:20:42;;;;;;;;;;;;;;;7.50;64.78;100800.09;115219;1204;22334;-59
2021/04/04 11:23:11;;;;;;;;;;;;;;;7.40;64.38;100795.66;115229;1205;21576;-60
2021/04/04 11:25:44;;;;;;;;;;;;;;;7.28;63.99;100799.98;115299;1204;21691;-59
2021/04/04 11:28:18;;;;;;;;;;;;;;;7.20;63.48;100793.86;115502;1204;25837;-58
2021/04/04 11:30:46;;;;;;;;;;;;;;;7.16;64.06;100801.52;115289;1200;24319;-58
2021/04/04 11:33:28;;;;;;;;;;;;;;;7.16;64.07;100786.84;115111;1203;23201;-57
2021/04/04 11:36:03;;;;;;;;;;;;;;;7.16;64.02;100787.63;115203;1204;21600;-58
2021/04/04 11:38:34;;;;;;;;;;;;;;;7.21;63.64;100789.88;115169;1204;21601;-59
2021/04/04 11:41:13;;;;;;;;;;;;;;;7.29;63.95;100790.42;115253;1204;24341;-59
2021/04/04 11:43:41;;;;;;;;;;;;;;;7.32;62.71;100793.08;115192;1204;21610;-58
2021/04/04 11:46:23;;;;;;;;;;;;;;;7.31;62.36;100785.20;115043;1205;21600;-58
2021/04/04 11:48:51;;;;;;;;;;;;;;;7.34;62.63;100782.30;114719;1206;23225;-58
2021/04/04 11:51:30;;;;;;;;;;;;;;;7.35;62.69;100781.09;114897;1207;21613;-59
2021/04/04 11:53:59;;;;;;;;;;;;;;;7.42;62.37;100779.32;114924;1207;25949;-59
2021/04/04 11:56:43;;;;;;;;;;;;;;;7.44;62.32;100765.77;115190;1207;21685;-57
2021/04/04 11:59:11;;;;;;;;;;;;;;;7.44;61.20;100757.43;114650;1207;21756;-58
2021/04/04 12:01:39;;;;;;;;;;;;;;;7.44;61.31;100760.20;114931;1208;25209;-58
2021/04/04 12:04:21;;;;;;;;;;;;;;;7.44;61.07;100749.88;114579;1208;21605;-59
2021/04/04 12:07:02;;;;;;;;;;;;;;;7.44;60.83;100746.31;114838;1207;25023;-59
2021/04/04 12:09:32;;;;;;;;;;;;;;;7.49;60.94;100745.77;114813;1207;21732;-58
2021/04/04 12:12:00;;;;;;;;;;;;;;;7.55;60.73;100744.77;115369;1203;21613;-58
2021/04/04 12:14:28;;;;;;;;;;;;;;;7.58;60.00;100738.30;115122;1207;21640;-59
2021/04/04 12:16:58;;;;;;;;;;;;;;;7.58;59.46;100732.75;115016;1207;21613;-59
2021/04/04 12:19:29;;;;;;;;;;;;;;;7.57;59.08;100730.42;115229;1207;21827;-60
2021/04/04 12:21:58;;;;;;;;;;;;;;;7.54;58.70;100725.75;115241;1207;21817;-60
2021/04/04 12:24:41;;;;;;;;;;;;;;;7.49;59.68;100715.21;115184;1208;22072;-61
2021/04/04 12:27:13;;;;;;;;;;;;;;;7.51;59.08;100716.30;116442;1204;21601;-61
2021/04/04 12:29:43;;;;;;;;;;;;;;;7.51;59.42;100702.41;115275;1204;21600;-59
2021/04/04 12:32:18;;;;;;;;;;;;;;;7.56;59.58;100706.63;115228;1204;25561;-61
2021/04/04 12:34:57;;;;;;;;;;;;;;;7.57;60.02;100705.42;115465;1204;24319;-60
2021/04/04 12:37:31;;;;;;;;;;;;;;;7.59;58.12;100702.97;115314;1204;21607;-62
2021/04/04 12:40:01;;;;;;;;;;;;;;;7.57;58.07;100697.87;115220;1203;23239;-57
2021/04/04 12:42:32;;;;;;;;;;;;;;;7.58;57.88;100691.07;115253;1204;24779;-57
2021/04/04 12:45:03;;;;;;;;;;;;;;;7.62;57.29;100686.17;116141;1204;25851;-57
2021/04/04 12:47:32;;;;;;;;;;;;;;;7.70;57.84;100683.92;115265;1205;25937;-57
2021/04/04 12:50:01;;;;;;;;;;;;;;;7.74;57.32;100681.82;115199;1205;21593;-56
2021/04/04 12:52:36;;;;;;;;;;;;;;;7.85;57.03;100668.31;114993;1205;22200;-55
2021/04/04 12:55:12;;;;;;;;;;;;;;;7.90;56.77;100656.64;115232;1205;21633;-57